Chinook, Washington
Current Conditions -  °F | °C
As of 6:55 PM on Friday 28 Nov 2014 (Local Time) from KAST Reporting Station
Overcast Overcast  
Wind Chill: 41°   Ceiling: 6000
Heat Index: 45°   Visibility: 10mi
Dew Point: 40°   Wind: 7mph
Humidity: 82%   Direction: 290°WNW
Pressure: 29.57"   Gusts: NA
Location:  46.28°N, 123.94°W
Report Text: KAST 290255Z AUTO 29006KT 10SM SCT036 OVC060 07/04 A2957 RMK AO2 RAE23 SLP012 P0000 60007 T00720044 53005
Loading
Personal Weather Stations






























Interactive Weather Map New forecast layout! Learn more

10-Day Weather Forecast

Advertisements
Track Severe Weather on mobile